• Join FlightAware (Why Join?)
  • Login
  • US Flag 
09:55PM EDT


 

Airport Tracker/Info


-or-


 

Live Flight TrackerFlight Track Log ✈ UAL1116 ✈ 08-Jan-2014 ✈ KEWR - KBOS

Flight Track Log - Related Links

Times and Time Zones

All times are in EST time to prevent confusion due to time zone crossing. See the UAL1116 flight status page for this flight to view local times or setup timezone preferences in your user account.

Time Position Orientation Groundspeed Altitude Reporting Facility
EST Latitude Longitude Course Direction KTS MPH feet Rate Location/Type
03:53PM 40.6500 -74.1833 270° West 163 188 1,900  Level New York TRACON
03:54PM 40.6500 -74.2333 270° West 223 257 4,400 2,700 Climbing New York TRACON
03:55PM 40.7167 -74.2000 21° North 269 310 7,300 1,800 Climbing New York TRACON
03:57PM 40.8025 -74.0144 59° Northeast 355 409 10,000 1,080 Climbing Boston Center
03:58PM 40.8478 -73.8989 63° Northeast 375 432 10,700 960 Climbing Boston Center
03:59PM 40.9169 -73.8028 46° Northeast 366 421 12,000 600 Climbing Boston Center
04:00PM 40.9856 -73.7033 48° Northeast 368 423 12,000  Level Boston Center
04:01PM 41.0700 -73.5831 47° Northeast 367 422 12,000 1,140 Level Boston Center
04:02PM 41.1406 -73.4833 47° Northeast 372 428 14,400 2,520 Climbing Boston Center
04:03PM 41.2175 -73.3728 47° Northeast 402 463 17,100 2,400 Climbing Boston Center
04:04PM 41.2883 -73.2400 55° Northeast 455 524 19,300 1,920 Climbing Boston Center
04:05PM 41.3272 -73.0819 72° East 450 518 21,000 780 Climbing Boston Center
04:06PM 41.3681 -72.9211 71° East 454 522 21,000  Level Boston Center
04:07PM 41.4075 -72.7594 72° East 456 525 21,000  Level Boston Center
04:08PM 41.4469 -72.5978 72° East 457 526 21,000  Level Boston Center
04:09PM 41.4867 -72.4381 72° East 454 522 21,000  Level Boston Center
04:10PM 41.5261 -72.2767 72° East 456 525 21,000  Level Boston Center
04:11PM 41.5633 -72.1067 74° East 466 536 21,000  Level Boston Center
04:12PM 41.6022 -71.9467 72° East 460 529 21,000 -840 Level Boston Center
04:13PM 41.6392 -71.7889 73° East 451 519 19,300 -1,620 Descending Boston Center
04:14PM 41.6789 -71.6267 72° East 440 506 17,700 -1,800 Descending Boston Center
04:15PM 41.7181 -71.4578 73° East 430 495 15,700 -2,040 Descending Boston Center
04:16PM 41.7706 -71.3239 62° Northeast 410 472 13,700 -1,920 Descending Boston Center
04:17PM 41.8247 -71.1958 60° Northeast 399 459 11,800 -1,320 Descending Boston Center
04:18PM 41.8797 -71.0672 60° Northeast 369 425 11,100 -540 Descending Boston Center
04:19PM 41.9000 -71.0000 68° East 350 403 11,000 -120 Descending KA90
04:20PM 41.9500 -70.9167 51° Northeast 344 396 11,000  Level KA90
04:20PM 41.9769 -70.8422 64° Northeast 353 406 11,000 -600 Level Boston Center
04:21PM 42.0272 -70.7389 57° Northeast 336 387 10,000 -1,260 Descending Boston Center
04:22PM 42.0861 -70.6553 46° Northeast 312 359 8,500 -1,500 Descending Boston Center
04:23PM 42.1539 -70.6106 26° Northeast 289 333 7,000 -1,680 Descending Boston Center
04:24PM 42.2000 -70.6000 10° North 260 299 6,000 -1,740 Descending KA90
04:25PM 42.2667 -70.6000 360° North 252 290 4,600 -1,020 Descending KA90
04:26PM 42.3167 -70.5833 14° North 201 231 4,100 -600 Descending KA90
04:27PM 42.3667 -70.5833 360° North 171 197 3,500 -660 Descending KA90
04:27PM 42.3931 -70.5700 20° North 193 222 3,000 -360 Descending Boston Center
04:28PM 42.4361 -70.5889 342° North 199 229 2,900 -60 Descending Boston Center
04:30PM 42.4425 -70.6317 281° West 178 205 2,900  Level Boston Center
04:31PM 42.4150 -70.6881 237° Southwest 161 185 3,000  Climbing Boston Center
04:32PM 42.4039 -70.7453 255° West 157 181 3,000  Level Boston Center
04:33PM 42.3956 -70.8014 259° West 156 180 3,000 -480 Level Boston Center
04:34PM 42.3842 -70.8592 255° West 154 177 2,100 -900 Descending Boston Center
04:35PM 42.3742 -70.9147 256° West 153 176 1,200 -840 Descending Boston Center
04:36PM 42.3656 -70.9625 256° West 136 157 400 -480 Descending Boston Center
04:37PM 42.3583 -71.0072 258° West 136 157 300 -120 Descending Boston Center